Airport View

Enter AWOS ICAO identifier for current METAR.

ex. KFNL

KGUC 120456Z AUTO 36005KT 10SM CLR M12/M14 A3024 RMK AO2 SLP341 T11221139 FZRANO

12 Dec 2019 05:33

Frequency: 135.075

Phone: 970-641-3240

Other Area AWOS: KMYP - K7BM - KASE - KANK

TAF KGUC 112330Z 1200/1224 03003KT P6SM SCT090 BKN200 FM120200 VRB03KT P6SM FEW080 SCT200 FM121200 VRB03KT P6SM FEW120 FEW250 FM121800 VRB03KT P6SM SCT060 SCT100